Time;durP1;ratioP1;P1;durP2;ratioP2;P2;SDS_P1;SDS_P2;PMS_P1;PMS_P2;Temp;Humidity;BMP_temperature;BMP_pressure;BME280_temperature;BME280_humidity;BME280_pressure;Samples;Min_cycle;Max_cycle;Signal;HPM_P1;HPM_P2
2022/04/29 00:02:24;;;;;;;26.67;7.78;;;14.60;99.90;;;;;;4868235;29;20058;-89
2022/04/29 00:04:51;;;;;;;24.55;7.50;;;14.60;99.90;;;;;;4883461;29;20068;-89
2022/04/29 00:07:17;;;;;;;28.40;7.72;;;14.60;99.90;;;;;;4868006;29;20100;-88
2022/04/29 00:09:44;;;;;;;26.45;7.43;;;14.70;99.90;;;;;;4867950;29;20119;-87
2022/04/29 00:12:12;;;;;;;28.30;8.02;;;14.70;99.90;;;;;;4867852;29;20481;-90
2022/04/29 00:14:46;;;;;;;24.85;7.55;;;14.70;99.90;;;;;;4867872;29;20025;-89
2022/04/29 00:17:14;;;;;;;22.70;7.35;;;14.70;99.90;;;;;;4883581;29;20036;-88
2022/04/29 00:19:40;;;;;;;29.63;7.45;;;14.70;99.90;;;;;;4867744;29;20051;-89
2022/04/29 00:22:07;;;;;;;21.40;7.40;;;14.70;99.90;;;;;;4883207;29;20037;-89
2022/04/29 00:24:34;;;;;;;24.50;7.63;;;14.70;99.90;;;;;;4867920;29;20025;-89
2022/04/29 00:27:00;;;;;;;18.98;7.63;;;14.70;99.90;;;;;;4867596;29;20040;-89
2022/04/29 00:29:27;;;;;;;23.20;7.82;;;14.70;99.90;;;;;;4883134;29;20036;-90
2022/04/29 00:31:54;;;;;;;20.73;6.88;;;14.70;99.90;;;;;;4867619;29;20112;-90
2022/04/29 00:34:21;;;;;;;25.73;6.93;;;14.70;99.90;;;;;;4867663;29;20033;-89
2022/04/29 00:36:48;;;;;;;24.55;8.10;;;14.70;99.90;;;;;;4868398;29;20024;-90
2022/04/29 00:39:17;;;;;;;29.38;7.32;;;14.70;99.90;;;;;;4882974;29;20048;-89
2022/04/29 00:41:44;;;;;;;23.17;7.68;;;14.80;99.90;;;;;;4882867;29;20121;-89
2022/04/29 00:44:11;;;;;;;18.10;7.00;;;14.80;99.90;;;;;;4882660;29;20038;-88
2022/04/29 00:46:47;;;;;;;25.33;7.35;;;14.80;99.90;;;;;;4882895;29;20027;-90
2022/04/29 00:49:15;;;;;;;28.92;7.95;;;14.80;99.90;;;;;;4882840;29;20062;-89
2022/04/29 00:51:45;;;;;;;32.67;7.72;;;14.80;99.90;;;;;;4882790;29;20614;-88
2022/04/29 00:54:25;;;;;;;22.38;6.88;;;14.80;99.90;;;;;;4867187;29;20039;-89
2022/04/29 00:56:54;;;;;;;33.60;7.68;;;14.80;99.90;;;;;;4882617;29;20032;-90
2022/04/29 01:00:00;;;;;;;25.08;6.72;;;14.80;99.90;;;;;;4897895;29;20055;-88
2022/04/29 01:02:29;;;;;;;25.65;8.38;;;14.80;99.90;;;;;;4900411;29;20540;-89
2022/04/29 01:05:07;;;;;;;25.55;7.30;;;14.80;99.90;;;;;;4901283;29;20505;-88
2022/04/29 01:07:39;;;;;;;28.38;7.55;;;14.80;99.90;;;;;;4900966;29;20028;-90
2022/04/29 01:10:08;;;;;;;22.60;7.18;;;14.80;99.90;;;;;;4916903;29;20056;-89
2022/04/29 01:12:38;;;;;;;29.67;7.22;;;14.80;99.90;;;;;;4900663;29;20028;-89
2022/04/29 01:15:10;;;;;;;23.40;7.43;;;14.80;99.90;;;;;;4916938;29;20389;-90
2022/04/29 01:17:39;;;;;;;20.45;7.00;;;14.80;99.90;;;;;;4901397;29;20402;-89
2022/04/29 01:20:09;;;;;;;21.63;7.72;;;14.80;99.90;;;;;;4901516;29;20046;-88
2022/04/29 01:22:36;;;;;;;26.10;6.78;;;14.80;99.90;;;;;;4916605;29;20028;-90
2022/04/29 01:25:04;;;;;;;25.15;7.32;;;14.80;99.90;;;;;;4901114;29;20036;-89
2022/04/29 01:27:32;;;;;;;27.23;7.53;;;14.80;99.90;;;;;;4900954;29;20080;-89
2022/04/29 01:30:16;;;;;;;27.45;7.35;;;14.80;99.90;;;;;;4901152;29;20028;-90
2022/04/29 01:32:44;;;;;;;18.45;6.57;;;14.80;99.90;;;;;;4901151;29;20036;-89
2022/04/29 01:35:13;;;;;;;20.77;6.95;;;14.70;99.90;;;;;;4916859;29;20048;-89
2022/04/29 01:37:42;;;;;;;31.77;8.00;;;14.80;99.90;;;;;;4916675;29;20066;-89
2022/04/29 01:40:10;;;;;;;29.63;7.45;;;14.80;99.90;;;;;;4900984;29;20112;-89
2022/04/29 01:42:42;;;;;;;24.60;7.38;;;14.70;99.90;;;;;;4916502;29;20042;-89
2022/04/29 01:45:12;;;;;;;23.17;8.23;;;14.70;99.90;;;;;;4916662;29;20036;-90
2022/04/29 01:47:59;;;;;;;20.30;6.85;;;14.80;99.90;;;;;;4916184;29;20047;-89
2022/04/29 01:50:44;;;;;;;21.42;7.32;;;14.80;99.90;;;;;;4916718;29;20103;-91
2022/04/29 01:53:10;;;;;;;25.80;6.82;;;14.70;99.90;;;;;;4900820;29;20056;-88
2022/04/29 01:55:37;;;;;;;30.92;7.50;;;14.70;99.90;;;;;;4901087;29;20115;-88
2022/04/29 01:58:05;;;;;;;22.77;7.20;;;14.70;99.90;;;;;;4900531;29;20044;-88
2022/04/29 02:00:34;;;;;;;23.02;7.68;;;14.70;99.90;;;;;;4900739;29;20115;-90
2022/04/29 02:03:00;;;;;;;20.75;7.13;;;14.70;99.90;;;;;;4900616;29;20028;-90
2022/04/29 02:05:27;;;;;;;20.52;7.00;;;14.70;99.90;;;;;;4916512;29;20032;-89
2022/04/29 02:07:57;;;;;;;13.35;6.68;;;14.70;99.90;;;;;;4900545;29;20479;-89
2022/04/29 02:10:24;;;;;;;27.48;7.63;;;14.70;99.90;;;;;;4916210;29;20490;-89
2022/04/29 02:12:51;;;;;;;28.60;6.57;;;14.70;99.90;;;;;;4900704;29;20116;-88
2022/04/29 02:15:21;;;;;;;20.88;6.53;;;14.70;99.90;;;;;;4916372;29;20035;-89
2022/04/29 02:17:52;;;;;;;18.70;7.10;;;14.70;99.90;;;;;;4900593;29;20024;-88
2022/04/29 02:20:22;;;;;;;24.25;6.57;;;14.70;99.90;;;;;;4916201;29;20413;-89
2022/04/29 02:22:49;;;;;;;21.00;6.50;;;14.60;99.90;;;;;;4900654;29;20103;-88
2022/04/29 02:25:15;;;;;;;26.60;7.57;;;14.60;99.90;;;;;;4903314;29;20617;-88
2022/04/29 02:27:43;;;;;;;23.25;7.03;;;14.60;99.90;;;;;;4904091;29;20514;-89
2022/04/29 02:30:13;;;;;;;26.55;7.03;;;14.60;99.90;;;;;;4919749;29;20084;-88
2022/04/29 02:32:41;;;;;;;23.67;6.85;;;14.60;99.90;;;;;;4903944;29;20032;-89
2022/04/29 02:35:08;;;;;;;21.35;6.57;;;14.60;99.90;;;;;;4903864;29;20024;-89
2022/04/29 02:37:35;;;;;;;23.63;6.45;;;14.60;99.90;;;;;;4903828;29;20099;-89
2022/04/29 02:40:03;;;;;;;21.00;7.18;;;14.50;99.90;;;;;;4919238;29;20119;-90
2022/04/29 02:42:32;;;;;;;19.40;6.75;;;14.50;99.90;;;;;;4903777;29;20020;-88
2022/04/29 02:45:01;;;;;;;21.15;6.95;;;14.50;99.90;;;;;;4903773;29;20516;-88
2022/04/29 02:47:45;;;;;;;20.38;7.18;;;14.50;99.90;;;;;;4919802;29;20164;-89
2022/04/29 02:50:12;;;;;;;21.20;7.80;;;14.50;99.90;;;;;;4919386;29;20028;-90
2022/04/29 02:52:47;;;;;;;21.52;6.35;;;14.50;99.90;;;;;;4904751;29;20036;-89
2022/04/29 02:55:15;;;;;;;21.52;7.38;;;14.50;99.90;;;;;;4903433;29;20036;-89
2022/04/29 02:57:53;;;;;;;26.45;6.75;;;14.40;99.90;;;;;;4905181;29;20047;-91
2022/04/29 03:00:20;;;;;;;28.23;8.15;;;14.40;99.90;;;;;;4903351;29;20502;-90
2022/04/29 03:02:48;;;;;;;22.80;7.28;;;14.30;99.90;;;;;;4903246;29;20036;-90
2022/04/29 03:05:14;;;;;;;18.95;7.97;;;14.30;99.90;;;;;;4903185;29;20067;-90
2022/04/29 03:07:44;;;;;;;27.77;7.63;;;14.20;99.90;;;;;;4903305;29;20390;-89
2022/04/29 03:10:14;;;;;;;19.05;7.07;;;14.30;99.90;;;;;;4903783;29;20028;-88
2022/04/29 03:12:41;;;;;;;25.67;7.97;;;14.20;99.90;;;;;;4903076;29;20032;-89
2022/04/29 03:15:28;;;;;;;19.83;7.28;;;14.20;99.90;;;;;;4917675;29;20502;-88
2022/04/29 03:20:44;;;;;;;21.83;8.32;;;14.20;99.90;;;;;;4918395;29;20039;-89
2022/04/29 03:23:12;;;;;;;29.63;8.98;;;14.10;99.90;;;;;;4902893;29;20067;-87
2022/04/29 03:25:50;;;;;;;31.33;8.45;;;14.10;99.90;;;;;;4903906;29;20032;-87
2022/04/29 03:28:17;;;;;;;22.88;8.05;;;14.10;99.90;;;;;;4902891;29;20537;-87
2022/04/29 03:30:45;;;;;;;20.92;8.48;;;14.10;99.90;;;;;;4902711;29;20028;-88
2022/04/29 03:33:12;;;;;;;24.30;8.18;;;14.00;99.90;;;;;;4902985;29;20036;-89
2022/04/29 03:35:50;;;;;;;16.88;7.20;;;14.00;99.90;;;;;;4917917;29;20032;-87
2022/04/29 03:38:23;;;;;;;20.38;7.10;;;13.90;99.90;;;;;;4918317;29;20063;-88
2022/04/29 03:40:50;;;;;;;18.73;7.03;;;13.90;99.90;;;;;;4902662;29;20393;-89
2022/04/29 03:43:25;;;;;;;20.40;7.82;;;14.00;99.90;;;;;;4902916;29;20032;-89
2022/04/29 03:45:52;;;;;;;24.77;8.05;;;14.00;99.90;;;;;;4902788;29;20039;-89
2022/04/29 03:51:38;;;;;;;27.20;7.32;;;14.10;99.90;;;;;;4918311;29;20060;-86
2022/04/29 03:54:05;;;;;;;24.65;8.43;;;14.10;99.90;;;;;;4902319;29;20095;-86
2022/04/29 03:56:36;;;;;;;19.65;8.32;;;14.10;99.90;;;;;;4903051;29;20035;-87
2022/04/29 03:59:03;;;;;;;24.55;7.97;;;14.20;99.90;;;;;;4901972;29;20127;-87
2022/04/29 04:01:31;;;;;;;29.77;9.35;;;14.20;99.90;;;;;;4902194;29;20028;-87
2022/04/29 04:04:05;;;;;;;20.70;7.72;;;14.20;99.90;;;;;;4917783;29;20095;-88
2022/04/29 04:06:50;;;;;;;19.98;7.65;;;14.20;99.90;;;;;;4902001;29;20058;-87
2022/04/29 04:09:22;;;;;;;23.27;8.48;;;14.20;99.90;;;;;;4902649;29;20055;-88
2022/04/29 04:11:52;;;;;;;22.58;8.73;;;14.20;99.90;;;;;;4902539;29;20032;-87
2022/04/29 04:14:39;;;;;;;28.30;8.13;;;14.30;99.90;;;;;;4880005;29;20038;-87
2022/04/29 04:17:07;;;;;;;18.23;8.30;;;14.30;99.90;;;;;;4901900;29;20504;-88
2022/04/29 04:19:35;;;;;;;19.45;7.80;;;14.30;99.90;;;;;;4902580;29;20044;-88
2022/04/29 04:22:03;;;;;;;22.77;8.45;;;14.40;99.90;;;;;;4917728;29;20115;-89
2022/04/29 04:24:30;;;;;;;21.45;7.47;;;14.40;99.90;;;;;;4901882;29;20156;-90
2022/04/29 04:26:57;;;;;;;25.27;8.68;;;14.50;99.90;;;;;;4901830;29;20028;-89
2022/04/29 04:29:24;;;;;;;26.00;8.23;;;14.50;99.90;;;;;;4902412;29;20146;-85
2022/04/29 04:31:52;;;;;;;21.75;7.90;;;14.60;99.90;;;;;;4902027;29;20028;-88
2022/04/29 04:34:54;;;;;;;21.52;8.15;;;14.60;99.90;;;;;;4901801;29;20039;-88
2022/04/29 04:37:13;;;;;;;22.00;8.40;;;14.70;99.90;;;;;;4914853;29;20040;-87
2022/04/29 04:39:40;;;;;;;23.38;7.57;;;14.70;99.90;;;;;;4901518;29;20040;-87
2022/04/29 04:42:12;;;;;;;24.27;7.70;;;14.80;99.90;;;;;;4917177;29;20032;-89
2022/04/29 04:44:49;;;;;;;17.30;8.00;;;14.80;99.90;;;;;;4917244;29;20483;-88
2022/04/29 04:47:19;;;;;;;28.10;7.47;;;14.80;99.90;;;;;;4892898;29;20300;-88
2022/04/29 04:50:06;;;;;;;23.42;7.95;;;14.90;99.90;;;;;;4907701;29;20032;-89
2022/04/29 04:52:33;;;;;;;19.83;7.55;;;15.00;99.90;;;;;;4905593;29;20032;-88
2022/04/29 04:55:06;;;;;;;22.25;6.82;;;15.00;99.90;;;;;;4889636;29;20025;-88
2022/04/29 04:57:34;;;;;;;20.13;7.95;;;15.00;99.90;;;;;;4890336;29;20029;-88
2022/04/29 05:00:05;;;;;;;26.42;7.80;;;15.10;99.90;;;;;;4889722;29;20043;-88
2022/04/29 05:02:52;;;;;;;22.58;8.05;;;15.10;99.90;;;;;;4905376;29;20044;-87
2022/04/29 05:05:51;;;;;;;26.77;8.07;;;15.20;99.90;;;;;;4878413;29;20041;-88
2022/04/29 05:08:17;;;;;;;19.45;8.15;;;15.20;99.90;;;;;;4893208;29;20028;-88
2022/04/29 05:10:44;;;;;;;20.45;7.38;;;15.30;99.90;;;;;;4889431;29;20028;-87
2022/04/29 05:13:13;;;;;;;22.42;7.90;;;15.30;99.90;;;;;;4895197;29;20040;-86
2022/04/29 05:15:43;;;;;;;23.60;8.02;;;15.30;99.90;;;;;;4889476;29;20040;-87
2022/04/29 05:18:18;;;;;;;19.20;7.65;;;15.40;99.90;;;;;;4891196;29;20032;-88
2022/04/29 05:21:01;;;;;;;22.08;7.45;;;15.40;99.90;;;;;;4908764;29;20038;-88
2022/04/29 05:23:27;;;;;;;24.35;7.78;;;15.40;99.90;;;;;;4900962;29;20117;-86
2022/04/29 05:26:13;;;;;;;26.67;7.75;;;15.50;99.90;;;;;;4917079;29;20043;-89
2022/04/29 05:28:58;;;;;;;28.40;8.02;;;15.50;99.90;;;;;;4916927;29;20115;-88
2022/04/29 05:31:44;;;;;;;21.00;7.15;;;15.60;99.90;;;;;;4917660;29;20097;-87
2022/04/29 05:34:34;;;;;;;24.50;7.20;;;15.60;99.90;;;;;;4882248;29;20158;-88
2022/04/29 05:37:22;;;;;;;19.08;7.78;;;15.70;99.90;;;;;;4906891;29;20095;-87
2022/04/29 05:42:41;;;;;;;24.13;7.18;;;15.80;99.90;;;;;;4916572;29;20032;-88
2022/04/29 05:45:08;;;;;;;18.60;7.00;;;15.90;99.90;;;;;;4901162;29;20178;-88
2022/04/29 05:47:37;;;;;;;17.83;7.18;;;15.90;99.90;;;;;;4900829;29;20032;-88
2022/04/29 05:50:04;;;;;;;23.17;7.18;;;16.00;99.90;;;;;;4901279;29;20036;-87
2022/04/29 05:52:33;;;;;;;24.23;7.20;;;16.00;99.90;;;;;;4964302;23;20063;-91
2022/04/29 05:55:00;;;;;;;21.42;6.55;;;16.00;99.90;;;;;;4915484;29;20580;-92
2022/04/29 05:57:30;;;;;;;22.98;6.88;;;16.00;99.90;;;;;;4917598;29;20031;-90
2022/04/29 06:00:16;;;;;;;17.27;6.35;;;16.00;99.90;;;;;;4901566;29;20068;-93
2022/04/29 06:03:21;;;;;;;14.60;6.40;;;16.10;99.90;;;;;;4904584;29;20534;-93
2022/04/29 06:15:56;;;;;;;20.77;6.30;;;16.20;99.90;;;;;;4863550;29;20044;-93
2022/04/29 06:27:42;;;;;;;16.90;5.85;;;16.40;99.90;;;;;;5183598;23;20453;-95
2022/04/29 06:30:10;;;;;;;14.23;5.40;;;16.40;99.90;;;;;;4922872;29;20030;-95
2022/04/29 06:32:57;;;;;;;16.77;5.35;;;16.50;99.90;;;;;;4922910;29;20032;-92
2022/04/29 06:35:27;;;;;;;13.15;5.50;;;16.50;99.90;;;;;;4923071;29;20082;-91
2022/04/29 06:37:55;;;;;;;16.20;5.28;;;16.50;99.90;;;;;;4923287;29;20031;-90
2022/04/29 06:40:41;;;;;;;18.25;5.07;;;16.60;99.90;;;;;;4926282;29;20043;-92
2022/04/29 06:43:08;;;;;;;17.55;5.60;;;16.60;99.90;;;;;;4922980;29;20032;-92
2022/04/29 06:46:10;;;;;;;13.60;5.13;;;16.70;99.90;;;;;;4863046;29;20049;-93
2022/04/29 06:48:46;;;;;;;16.80;5.22;;;16.60;99.90;;;;;;4928655;29;20042;-93
2022/04/29 06:51:12;;;;;;;20.70;5.50;;;16.80;99.90;;;;;;4922704;29;20059;-93
2022/04/29 06:53:53;;;;;;;18.58;5.75;;;16.80;99.90;;;;;;4922906;29;20123;-94
2022/04/29 06:56:26;;;;;;;16.45;5.70;;;16.80;99.90;;;;;;4922742;29;20456;-92
2022/04/29 06:58:53;;;;;;;17.95;5.85;;;16.70;99.90;;;;;;4922562;29;20063;-93
2022/04/29 07:01:24;;;;;;;16.33;5.35;;;16.80;99.90;;;;;;4907464;29;20031;-93
2022/04/29 07:03:51;;;;;;;17.10;5.63;;;16.90;99.90;;;;;;4922469;29;20433;-94
2022/04/29 07:46:10;;;;;;;11.25;4.53;;;18.50;99.90;;;;;;5916232;23;20027;-91
2022/04/29 07:48:49;;;;;;;16.27;4.15;;;18.50;99.90;;;;;;4919725;29;20051;-92
2022/04/29 07:51:16;;;;;;;13.38;4.32;;;18.60;99.90;;;;;;4902385;29;20028;-92
2022/04/29 07:53:42;;;;;;;14.40;4.60;;;18.90;99.90;;;;;;4902509;29;20119;-92
2022/04/29 07:56:09;;;;;;;11.25;4.75;;;19.40;99.90;;;;;;4907033;29;20056;-93
2022/04/29 07:58:38;;;;;;;19.25;4.88;;;19.00;99.90;;;;;;4915236;29;20044;-93
2022/04/29 08:01:11;;;;;;;14.25;4.55;;;18.90;99.90;;;;;;4905969;29;20051;-92
2022/04/29 08:03:45;;;;;;;17.80;4.28;;;19.30;99.90;;;;;;4903615;29;20051;-94
2022/04/29 08:06:16;;;;;;;11.48;4.65;;;19.80;99.90;;;;;;4903024;29;20028;-92
2022/04/29 08:08:43;;;;;;;15.40;4.10;;;19.20;99.90;;;;;;4917612;29;20024;-95
2022/04/29 08:11:10;;;;;;;18.13;4.95;;;19.30;99.90;;;;;;4901870;29;20472;-94
2022/04/29 08:14:06;;;;;;;7.47;4.45;;;19.10;99.90;;;;;;4917546;29;20036;-92
2022/04/29 08:16:55;;;;;;;7.88;3.70;;;18.80;99.90;;;;;;4917878;29;20379;-93
2022/04/29 08:19:30;;;;;;;9.05;4.05;;;19.20;99.90;;;;;;4917518;29;20040;-92
2022/04/29 08:22:16;;;;;;;10.65;4.70;;;19.50;99.90;;;;;;4918636;29;20247;-92
2022/04/29 08:24:43;;;;;;;12.35;3.67;;;19.60;99.90;;;;;;4902816;29;20032;-94
2022/04/29 08:27:11;;;;;;;11.32;4.60;;;19.60;99.90;;;;;;4917478;29;20024;-91
2022/04/29 08:29:39;;;;;;;15.52;4.50;;;19.70;99.90;;;;;;4901795;29;20028;-93
2022/04/29 08:32:07;;;;;;;7.43;3.92;;;19.60;99.90;;;;;;4902019;29;20402;-93
2022/04/29 08:34:38;;;;;;;20.45;4.43;;;19.80;99.90;;;;;;4902389;29;20135;-92
2022/04/29 08:37:05;;;;;;;10.98;4.35;;;19.60;99.90;;;;;;4901368;29;20075;-94
2022/04/29 08:39:37;;;;;;;8.10;3.75;;;19.90;99.90;;;;;;4902406;29;20044;-93
2022/04/29 08:42:06;;;;;;;9.13;4.35;;;20.10;99.90;;;;;;4918047;29;20040;-92
2022/04/29 08:44:34;;;;;;;9.90;4.50;;;20.00;99.90;;;;;;4901552;29;20032;-95
2022/04/29 08:47:39;;;;;;;9.23;3.90;;;20.00;99.90;;;;;;4905777;29;20134;-93
2022/04/29 08:50:20;;;;;;;15.65;4.72;;;20.20;99.90;;;;;;4918369;29;20104;-94
2022/04/29 08:52:51;;;;;;;12.32;4.10;;;20.70;99.90;;;;;;4886237;29;20123;-93
2022/04/29 09:00:49;;;;;;;10.55;4.45;;;19.80;99.90;;;;;;4917180;29;20502;-94
2022/04/29 09:03:23;;;;;;;10.25;4.10;;;19.60;99.90;;;;;;4901563;29;20043;-93
2022/04/29 09:05:50;;;;;;;10.07;4.32;;;19.90;99.90;;;;;;4917226;29;20075;-93
2022/04/29 09:08:20;;;;;;;15.00;4.10;;;19.60;99.90;;;;;;4901730;29;20036;-93
2022/04/29 09:47:20;;;;;;;8.85;4.63;;;20.10;99.90;;;;;;5915059;23;20047;-94
2022/04/29 10:28:24;;;;;;;10.52;4.28;;;20.10;99.90;;;;;;5840477;23;20067;-93
2022/04/29 13:02:34;;;;;;;;;;;;;;;;;;;;;
2022/04/29 14:50:34;;;;;;;3.92;2.90;;;19.80;99.90;;;;;;4952933;28;20103;-94
2022/04/29 14:53:52;;;;;;;;;;;;;;;;;;;;;
2022/04/29 17:46:14;;;;;;;8.63;4.75;;;17.40;99.90;;;;;;5987368;23;20315;-91
